Terminal Aerodrome Forecast
Issued by NWS

Current Version | Previous Version | Text Only | Print | Product List | Glossary On
Versions: 1 2 3 4 5 6 7 8 9 10 11 12 13 14 15 16 17 18 19 20 21 22 23
265
FTUS44 KTSA 231120
TAFMLC
TAF
KMLC 231120Z 2312/2412 00000KT 3SM BR OVC006
      TEMPO 2312/2315 1SM BR OVC003
     FM231500 VRB03KT 3SM -TSRA OVC007CB
     FM240000 VRB03KT 3SM BR OVC004 PROB30 2408/2412 3SM -TSRA
      BKN006CB=

USA.gov is the U.S. government's official web portal to all federal, state and local government web resources and services.